Saint Mary, Montana
Current Conditions -  °F | °C
As of 5:56 PM on Saturday 22 Nov 2014 (Local Time) from KCTB Reporting Station
Broken Clouds Broken Clouds  
Wind Chill: -5°   Ceiling: 10000
Heat Index:   Visibility: 10mi
Dew Point: -6°   Wind: 26mph
Humidity: 57%   Direction: 270°W
Pressure: 29.44"   Gusts: NA
Location:  48.5484°N, 112.952°W
Report Text: KCTB 230056Z AUTO 27023KT 10SM BKN100 02/M06 A2944 RMK AO2 PK WND 27030/0038 SLP985 T00171061
Loading
Personal Weather Stations






























Interactive Weather Map New forecast layout! Learn more

10-Day Weather Forecast

Advertisements
Track Severe Weather on mobile